Hughes, Alaska
Current Conditions -  °F | °C
As of 2:55 PM on Friday 21 Nov 2014 (Local Time) from PAIM Reporting Station
Clear Clear  
Wind Chill: -11°   Ceiling: Unl
Heat Index: 12°   Visibility: 10mi
Dew Point: -4°   Wind: 37mph
Humidity: 48%   Direction: 80°E
Pressure: 29.35"   Gusts: 56mph
Location:  66.05°N, 154.26°W
Report Text: PAIM 212355Z AUTO 08032G49KT 060V120 10SM CLR M11/M20 A2935 RMK AO2 SLP973 T11101200 11096 21110 57010
Loading
Personal Weather Stations






























Interactive Weather Map New forecast layout! Learn more

10-Day Weather Forecast

Advertisements
Track Severe Weather on mobile